createdAt,value
2023-01-11T00:04:30.650Z,0.80
2023-01-11T00:09:34.326Z,1.07
2023-01-11T00:14:37.592Z,1.57
2023-01-11T00:19:42.374Z,0.70
2023-01-11T00:24:45.921Z,2.63
2023-01-11T00:29:49.190Z,1.53
2023-01-11T00:34:53.925Z,3.10
2023-01-11T00:39:57.220Z,1.17
2023-01-11T00:45:17.897Z,0.97
2023-01-11T00:50:22.694Z,1.10
2023-01-11T00:55:26.143Z,1.97
2023-01-11T01:00:30.395Z,1.40
2023-01-11T01:05:34.980Z,1.60
2023-01-11T01:10:38.250Z,2.00
2023-01-11T01:15:42.938Z,1.10
2023-01-11T01:20:51.648Z,2.57
2023-01-11T01:25:54.838Z,1.53
2023-01-11T01:30:58.156Z,1.90
2023-01-11T01:36:04.335Z,1.00
2023-01-11T01:41:08.042Z,2.77
2023-01-11T01:46:11.435Z,1.77
2023-01-11T01:51:20.306Z,3.90
2023-01-11T01:56:29.458Z,1.40
2023-01-11T02:01:50.838Z,0.93
2023-01-11T02:06:59.793Z,1.47
2023-01-11T02:12:05.112Z,0.97
2023-01-11T02:17:08.902Z,1.20
2023-01-11T02:22:39.658Z,1.53
2023-01-11T02:28:12.547Z,1.60
2023-01-11T02:33:23.272Z,1.13
2023-01-11T02:38:32.089Z,1.20
2023-01-11T02:44:04.671Z,2.03
2023-01-11T02:49:15.110Z,4.10
2023-01-11T02:54:22.062Z,1.77
2023-01-11T02:59:32.184Z,1.10
2023-01-11T03:04:37.111Z,0.93
2023-01-11T03:09:52.155Z,1.47
2023-01-11T03:15:09.131Z,1.10
2023-01-11T03:20:21.842Z,1.93
2023-01-11T03:25:32.271Z,1.73
2023-01-11T03:30:42.294Z,1.43
2023-01-11T03:35:49.949Z,2.10
2023-01-11T03:40:57.219Z,1.60
2023-01-11T03:46:06.354Z,2.53
2023-01-11T03:51:13.781Z,1.30
2023-01-11T03:56:21.282Z,2.43
2023-01-11T04:01:27.435Z,3.77
2023-01-11T04:06:31.134Z,2.10
2023-01-11T04:11:34.393Z,1.37
2023-01-11T04:16:39.206Z,2.63
2023-01-11T04:21:42.490Z,3.20
2023-01-11T04:26:46.058Z,2.57
2023-01-11T04:31:50.711Z,2.17
2023-01-11T04:36:54.097Z,3.80
2023-01-11T04:42:14.646Z,3.63
2023-01-11T04:47:20.646Z,4.87
2023-01-11T04:52:23.956Z,3.93
2023-01-11T04:57:27.385Z,2.60
2023-01-11T05:02:32.046Z,3.17
2023-01-11T05:07:35.851Z,2.63
2023-01-11T05:12:39.556Z,2.00
2023-01-11T05:17:44.221Z,3.13
2023-01-11T05:22:47.624Z,3.20
2023-01-11T05:27:50.987Z,2.10
2023-01-11T05:32:56.761Z,3.53
2023-01-11T05:38:00.046Z,2.70
2023-01-11T05:43:03.433Z,3.17
2023-01-11T05:48:08.723Z,2.00
2023-01-11T05:53:12.329Z,3.50
2023-01-11T05:58:15.766Z,1.87
2023-01-11T06:03:21.054Z,1.47
2023-01-11T06:08:24.532Z,3.30
2023-01-11T06:13:27.851Z,4.17
2023-01-11T06:18:34.005Z,2.07
2023-01-11T06:23:39.717Z,3.73
2023-01-11T06:28:43.521Z,2.10
2023-01-11T06:33:48.658Z,3.20
2023-01-11T06:38:53.977Z,3.00
2023-01-11T06:43:57.313Z,4.17
2023-01-11T06:49:03.128Z,3.50
2023-01-11T06:54:06.510Z,4.50
2023-01-11T06:59:09.896Z,4.93
2023-01-11T07:04:14.606Z,4.37
2023-01-11T07:09:17.889Z,3.03
2023-01-11T07:14:22.190Z,4.10
2023-01-11T07:19:26.892Z,3.73
2023-01-11T07:24:30.213Z,2.30
2023-01-11T07:29:33.473Z,4.13
2023-01-11T07:34:39.027Z,3.17
2023-01-11T07:39:43.812Z,3.90
2023-01-11T07:44:47.464Z,3.43
2023-01-11T07:49:52.382Z,2.67
2023-01-11T07:54:55.968Z,3.03
2023-01-11T07:59:59.513Z,3.57
2023-01-11T08:05:04.234Z,6.47
2023-01-11T08:10:09.124Z,3.83
2023-01-11T08:15:14.220Z,4.50
2023-01-11T08:20:21.054Z,3.23
2023-01-11T08:25:24.782Z,3.27
2023-01-11T08:30:28.445Z,4.23
2023-01-11T08:35:37.755Z,3.03
2023-01-11T08:40:41.499Z,3.13
2023-01-11T08:45:44.784Z,3.80
2023-01-11T08:50:49.555Z,2.53
2023-01-11T08:55:53.595Z,2.63
2023-01-11T09:01:00.181Z,2.47
2023-01-11T09:06:05.101Z,2.33
2023-01-11T09:11:28.389Z,2.77
2023-01-11T09:16:31.753Z,3.27
2023-01-11T09:21:36.591Z,1.50
2023-01-11T09:26:41.700Z,1.57
2023-01-11T09:31:45.009Z,3.30
2023-01-11T09:36:49.803Z,2.30
2023-01-11T09:42:21.722Z,2.67
2023-01-11T09:47:36.725Z,1.97
2023-01-11T09:52:44.652Z,3.07
2023-01-11T09:57:59.354Z,2.83
2023-01-11T10:03:28.989Z,2.90
2023-01-11T10:18:29.666Z,1.80
2023-01-11T10:20:04.451Z,1.87
2023-01-11T10:25:18.875Z,1.90
2023-01-11T10:30:48.491Z,2.53
2023-01-11T10:36:13.567Z,2.67
2023-01-11T10:41:26.524Z,3.50
2023-01-11T10:46:33.803Z,2.10
2023-01-11T10:51:41.607Z,3.13
2023-01-11T10:57:02.987Z,1.27
2023-01-11T11:02:21.205Z,1.77
2023-01-11T11:07:34.566Z,3.00
2023-01-11T11:12:43.409Z,1.70
2023-01-11T11:17:51.147Z,1.97
2023-01-11T11:22:56.692Z,3.30
2023-01-11T11:28:05.302Z,1.27
2023-01-11T11:33:21.455Z,1.27
2023-01-11T11:38:26.941Z,2.03
2023-01-11T11:43:34.100Z,1.80
2023-01-11T11:48:37.450Z,2.10
2023-01-11T11:53:44.637Z,1.87
2023-01-11T11:58:49.847Z,1.50
2023-01-11T12:03:56.347Z,1.80
2023-01-11T12:09:03.087Z,1.77
2023-01-11T12:14:19.137Z,2.63
2023-01-11T12:19:42.676Z,2.53
2023-01-11T12:24:47.551Z,3.43
2023-01-11T12:30:08.358Z,1.83
2023-01-11T12:35:35.211Z,3.10
2023-01-11T12:40:46.901Z,3.20
2023-01-11T12:46:01.648Z,4.60
2023-01-11T12:51:19.457Z,2.77
2023-01-11T12:56:48.689Z,1.57
2023-01-11T13:02:04.933Z,2.03
2023-01-11T13:07:15.890Z,2.03
2023-01-11T13:12:27.897Z,1.90
2023-01-11T13:17:39.476Z,2.57
2023-01-11T13:22:48.111Z,1.50
2023-01-11T13:27:52.700Z,4.00
2023-01-11T13:33:00.681Z,1.88
2023-01-11T13:38:12.415Z,2.17
2023-01-11T13:43:22.455Z,3.00
2023-01-11T13:48:32.793Z,2.58
2023-01-11T13:53:43.724Z,3.40
2023-01-11T13:58:53.637Z,2.17
2023-01-11T14:04:05.266Z,3.67
2023-01-11T14:09:23.257Z,3.25
2023-01-11T14:14:52.688Z,3.13
2023-01-11T14:20:06.155Z,3.05
2023-01-11T14:25:16.682Z,3.20
2023-01-11T14:30:58.468Z,4.30
2023-01-11T14:36:19.856Z,12.05
2023-01-11T14:41:49.124Z,7.27
2023-01-11T14:47:35.305Z,6.97
2023-01-11T14:52:42.437Z,5.82
2023-01-11T14:58:01.249Z,3.45
2023-01-11T15:03:32.354Z,3.30
2023-01-11T15:08:44.248Z,5.20
2023-01-11T15:13:50.757Z,3.20
2023-01-11T15:18:55.443Z,2.28
2023-01-11T15:24:00.313Z,3.65
2023-01-11T15:29:04.395Z,2.80
2023-01-11T15:34:23.629Z,3.70
2023-01-11T15:39:39.486Z,5.17
2023-01-11T15:45:04.682Z,4.78
2023-01-11T15:50:27.999Z,4.35
2023-01-11T15:56:13.058Z,3.25
2023-01-11T16:01:24.336Z,2.20
2023-01-11T16:06:44.688Z,4.43
2023-01-11T16:11:57.521Z,3.72
2023-01-11T16:17:03.562Z,2.77
2023-01-11T16:22:15.982Z,5.27
2023-01-11T16:27:25.621Z,3.30
2023-01-11T16:32:33.712Z,2.47
2023-01-11T16:37:40.175Z,3.83
2023-01-11T16:42:48.475Z,3.08
2023-01-11T16:48:06.432Z,2.75
2023-01-11T16:53:14.467Z,6.53
2023-01-11T16:58:25.737Z,6.40
2023-01-11T17:03:31.622Z,4.57
2023-01-11T17:08:36.643Z,7.78
2023-01-11T17:14:21.876Z,3.47
2023-01-11T17:19:30.021Z,3.53
2023-01-11T17:24:38.284Z,4.45
2023-01-11T17:29:42.359Z,2.30
2023-01-11T17:34:47.464Z,2.50
2023-01-11T17:39:53.133Z,4.88
2023-01-11T17:45:15.280Z,3.90
2023-01-11T17:50:29.839Z,4.93
2023-01-11T17:55:36.175Z,3.85
2023-01-11T18:00:46.314Z,2.80
2023-01-11T18:05:51.595Z,3.97
2023-01-11T18:10:56.414Z,4.13
2023-01-11T18:16:00.924Z,3.47
2023-01-11T18:21:26.085Z,4.05
2023-01-11T18:26:32.711Z,3.30
2023-01-11T18:31:36.156Z,2.17
2023-01-11T18:36:42.129Z,4.53
2023-01-11T18:42:03.125Z,5.10
2023-01-11T18:47:15.689Z,2.58
2023-01-11T18:52:27.511Z,3.33
2023-01-11T18:57:34.729Z,3.67
2023-01-11T19:02:43.049Z,2.73
2023-01-11T19:07:48.469Z,6.50
2023-01-11T19:12:52.789Z,5.90
2023-01-11T19:17:56.896Z,5.10
2023-01-11T19:23:03.219Z,5.27
2023-01-11T19:28:07.875Z,5.43
2023-01-11T19:33:12.564Z,7.28
2023-01-11T19:38:19.383Z,8.13
2023-01-11T19:43:23.350Z,8.83
2023-01-11T19:48:27.537Z,13.27
2023-01-11T19:53:33.788Z,11.27
2023-01-11T19:58:40.702Z,5.82
2023-01-11T20:03:46.009Z,3.65
2023-01-11T20:08:52.383Z,5.85
2023-01-11T20:13:57.270Z,3.65
2023-01-11T20:19:00.795Z,4.28
2023-01-11T20:24:06.524Z,3.20
2023-01-11T20:29:10.255Z,3.33
2023-01-11T20:34:14.191Z,1.10
2023-01-11T20:39:19.239Z,1.05
2023-01-11T20:44:25.121Z,2.55
2023-01-11T20:49:30.340Z,1.95
2023-01-11T20:54:37.423Z,1.27
2023-01-11T20:59:41.412Z,1.23
2023-01-11T21:04:45.344Z,1.23
2023-01-11T21:09:50.096Z,0.88
2023-01-11T21:14:53.503Z,1.83
2023-01-11T21:19:56.871Z,0.73
2023-01-11T21:25:01.633Z,0.70
2023-01-11T21:30:05.789Z,0.75
2023-01-11T21:35:10.553Z,0.80
2023-01-11T21:40:15.570Z,1.38
2023-01-11T21:45:18.965Z,0.73
2023-01-11T21:50:22.323Z,0.90
2023-01-11T21:55:27.183Z,1.52
2023-01-11T22:00:31.530Z,1.10
2023-01-11T22:05:34.882Z,1.02
2023-01-11T22:10:40.238Z,1.10
2023-01-11T22:15:43.550Z,1.20
2023-01-11T22:20:47.128Z,1.00
2023-01-11T22:25:51.832Z,1.10
2023-01-11T22:30:55.380Z,1.50
2023-01-11T22:35:58.821Z,1.27
2023-01-11T22:41:03.555Z,1.58
2023-01-11T22:46:07.478Z,1.42
2023-01-11T22:51:12.617Z,1.15
2023-01-11T22:56:19.492Z,1.30
2023-01-11T23:01:24.675Z,1.10
2023-01-11T23:06:30.428Z,1.33
2023-01-11T23:11:55.866Z,1.55
2023-01-11T23:17:00.617Z,1.30
2023-01-11T23:22:05.145Z,1.70
2023-01-11T23:27:09.997Z,1.20
2023-01-11T23:32:13.440Z,1.20
2023-01-11T23:37:17.538Z,1.20
2023-01-11T23:42:28.199Z,1.20
2023-01-11T23:47:31.595Z,1.20
2023-01-11T23:52:34.942Z,1.20
2023-01-11T23:57:59.738Z,1.20
